Time;durP1;ratioP1;P1;durP2;ratioP2;P2;SDS_P1;SDS_P2;PMS_P1;PMS_P2;Temp;Humidity;BMP_temperature;BMP_pressure;BME280_temperature;BME280_humidity;BME280_pressure;Samples;Min_cycle;Max_cycle;Signal;HPM_P1;HPM_P2
2022/11/21 00:01:18;;;;;;;12.10;9.63;;;;;;;;;;5037667;28;20941;-67
2022/11/21 00:03:44;;;;;;;12.33;9.83;;;;;;;;;;5035383;28;20183;-67
2022/11/21 00:06:09;;;;;;;10.60;9.30;;;;;;;;;;5032492;28;20441;-66
2022/11/21 00:08:34;;;;;;;12.60;9.83;;;;;;;;;;5032250;28;20200;-68
2022/11/21 00:11:00;;;;;;;15.37;11.77;;;;;;;;;;5034247;28;20223;-66
2022/11/21 00:13:25;;;;;;;14.33;11.23;;;;;;;;;;5046133;28;20686;-67
2022/11/21 00:15:51;;;;;;;13.90;11.43;;;;;;;;;;5051386;28;20656;-66
2022/11/21 00:18:16;;;;;;;18.00;12.07;;;;;;;;;;5037333;28;20241;-67
2022/11/21 00:20:42;;;;;;;13.17;10.30;;;;;;;;;;5035297;28;21347;-67
2022/11/21 00:23:07;;;;;;;12.30;9.90;;;;;;;;;;5050184;28;20191;-67
2022/11/21 00:25:33;;;;;;;11.83;9.97;;;;;;;;;;5036912;28;20509;-68
2022/11/21 00:27:58;;;;;;;12.73;9.80;;;;;;;;;;5033382;28;20204;-66
2022/11/21 00:30:24;;;;;;;12.33;10.43;;;;;;;;;;5032895;28;20302;-67
2022/11/21 00:32:49;;;;;;;12.10;9.73;;;;;;;;;;5036796;28;20184;-67
2022/11/21 00:35:15;;;;;;;11.93;9.80;;;;;;;;;;5055797;28;20242;-66
2022/11/21 00:37:40;;;;;;;13.43;10.00;;;;;;;;;;5039468;28;20204;-67
2022/11/21 00:40:06;;;;;;;14.10;10.57;;;;;;;;;;5039984;28;20656;-71
2022/11/21 00:42:31;;;;;;;13.50;10.07;;;;;;;;;;5042846;28;20210;-68
2022/11/21 00:44:56;;;;;;;11.03;9.63;;;;;;;;;;5048416;28;20552;-67
2022/11/21 00:47:22;;;;;;;10.83;8.93;;;;;;;;;;5044499;28;20210;-67
2022/11/21 00:49:47;;;;;;;10.63;8.83;;;;;;;;;;5044338;28;20184;-67
2022/11/21 00:52:13;;;;;;;12.93;10.50;;;;;;;;;;5044209;28;20621;-67
2022/11/21 00:54:38;;;;;;;11.80;10.03;;;;;;;;;;5040322;28;20202;-67
2022/11/21 00:57:03;;;;;;;10.33;9.10;;;;;;;;;;5038479;28;20631;-67
2022/11/21 00:59:29;;;;;;;12.03;9.83;;;;;;;;;;5040391;28;20334;-67
2022/11/21 01:01:54;;;;;;;12.10;9.67;;;;;;;;;;5038979;28;20188;-68
2022/11/21 01:04:20;;;;;;;11.30;10.10;;;;;;;;;;5040410;28;20236;-67
2022/11/21 01:06:45;;;;;;;10.83;8.70;;;;;;;;;;5038559;28;20222;-67
2022/11/21 01:09:11;;;;;;;11.60;10.00;;;;;;;;;;5038757;28;20203;-67
2022/11/21 01:11:36;;;;;;;10.27;9.13;;;;;;;;;;5036587;28;20644;-67
2022/11/21 01:14:01;;;;;;;11.67;9.20;;;;;;;;;;5060506;28;20188;-68
2022/11/21 01:16:27;;;;;;;10.40;8.87;;;;;;;;;;5031098;28;20176;-67
2022/11/21 01:18:52;;;;;;;11.37;8.93;;;;;;;;;;5031119;28;20211;-67
2022/11/21 01:21:19;;;;;;;11.90;9.37;;;;;;;;;;5038903;28;20442;-67
2022/11/21 01:23:45;;;;;;;11.03;9.20;;;;;;;;;;5040346;28;20868;-67
2022/11/21 01:26:11;;;;;;;12.37;9.57;;;;;;;;;;5039472;28;20435;-67
2022/11/21 01:28:36;;;;;;;10.97;8.97;;;;;;;;;;5042449;28;20204;-67
2022/11/21 01:31:09;;;;;;;10.30;8.90;;;;;;;;;;5040702;28;20484;-67
2022/11/21 01:33:35;;;;;;;11.27;9.50;;;;;;;;;;5039562;28;20713;-72
2022/11/21 01:36:11;;;;;;;11.37;9.50;;;;;;;;;;5041616;28;20521;-72
2022/11/21 01:38:37;;;;;;;10.40;9.30;;;;;;;;;;5045849;28;20267;-67
2022/11/21 01:41:03;;;;;;;12.53;9.43;;;;;;;;;;5043619;28;20438;-67
2022/11/21 01:43:28;;;;;;;11.47;9.73;;;;;;;;;;5044247;28;20429;-67
2022/11/21 01:45:56;;;;;;;11.23;10.00;;;;;;;;;;5042166;28;20188;-67
2022/11/21 01:48:25;;;;;;;12.30;10.00;;;;;;;;;;5046783;28;20204;-66
2022/11/21 01:50:51;;;;;;;12.40;10.33;;;;;;;;;;5041666;28;20480;-66
2022/11/21 01:53:17;;;;;;;10.10;9.10;;;;;;;;;;5044222;28;20930;-67
2022/11/21 01:55:42;;;;;;;10.90;9.20;;;;;;;;;;5041379;28;20184;-68
2022/11/21 01:58:08;;;;;;;11.63;9.70;;;;;;;;;;5043506;28;20274;-67
2022/11/21 02:00:36;;;;;;;11.13;9.23;;;;;;;;;;5043697;28;20187;-70
2022/11/21 02:03:05;;;;;;;11.87;9.57;;;;;;;;;;5042647;28;20434;-67
2022/11/21 02:05:32;;;;;;;12.23;9.63;;;;;;;;;;5045193;28;20438;-66
2022/11/21 02:08:01;;;;;;;13.23;10.37;;;;;;;;;;5040126;28;20458;-69
2022/11/21 02:10:27;;;;;;;11.47;9.70;;;;;;;;;;5038609;28;20591;-68
2022/11/21 02:12:53;;;;;;;12.43;10.27;;;;;;;;;;5041061;28;20943;-67
2022/11/21 02:15:20;;;;;;;11.13;9.70;;;;;;;;;;5037931;28;20179;-67
2022/11/21 02:17:46;;;;;;;12.50;10.20;;;;;;;;;;5039786;28;20465;-67
2022/11/21 02:20:13;;;;;;;11.50;9.30;;;;;;;;;;5042807;28;20479;-68
2022/11/21 02:22:41;;;;;;;12.60;10.33;;;;;;;;;;5045478;28;20241;-67
2022/11/21 02:25:08;;;;;;;12.53;9.50;;;;;;;;;;5040362;28;21071;-67
2022/11/21 02:27:34;;;;;;;14.20;10.23;;;;;;;;;;5044854;28;20419;-67
2022/11/21 02:30:02;;;;;;;14.40;10.60;;;;;;;;;;5037034;28;20491;-68
2022/11/21 02:32:35;;;;;;;11.60;10.13;;;;;;;;;;5038425;28;20227;-67
2022/11/21 02:35:00;;;;;;;11.10;9.70;;;;;;;;;;5042108;28;20509;-67
2022/11/21 02:37:25;;;;;;;14.63;12.00;;;;;;;;;;5042179;28;20557;-68
2022/11/21 02:39:52;;;;;;;12.10;9.97;;;;;;;;;;5043359;28;20218;-68
2022/11/21 02:42:23;;;;;;;11.83;10.30;;;;;;;;;;5038087;28;20715;-68
2022/11/21 02:45:09;;;;;;;12.00;10.07;;;;;;;;;;5043333;28;20422;-69
2022/11/21 02:47:35;;;;;;;13.23;9.73;;;;;;;;;;5040666;28;20461;-67
2022/11/21 02:50:00;;;;;;;12.13;9.87;;;;;;;;;;5063198;28;20516;-70
2022/11/21 02:52:26;;;;;;;11.23;10.03;;;;;;;;;;5040768;28;20470;-67
2022/11/21 02:54:51;;;;;;;11.43;9.80;;;;;;;;;;5043664;28;20207;-67
2022/11/21 02:57:16;;;;;;;13.03;9.50;;;;;;;;;;5042593;28;20179;-68
2022/11/21 02:59:42;;;;;;;11.50;9.33;;;;;;;;;;5037814;28;20286;-68
2022/11/21 03:02:10;;;;;;;12.13;9.80;;;;;;;;;;5040093;28;20222;-70
2022/11/21 03:04:36;;;;;;;12.20;10.00;;;;;;;;;;5055455;28;20195;-68
2022/11/21 03:07:01;;;;;;;11.50;9.50;;;;;;;;;;5035802;28;20442;-68
2022/11/21 03:09:26;;;;;;;13.43;9.47;;;;;;;;;;5035446;28;20208;-68
2022/11/21 03:11:52;;;;;;;12.37;9.57;;;;;;;;;;5037204;28;23682;-68
2022/11/21 03:14:17;;;;;;;11.63;10.40;;;;;;;;;;5034977;28;20176;-69
2022/11/21 03:16:42;;;;;;;12.07;10.77;;;;;;;;;;5036144;28;20184;-67
2022/11/21 03:19:08;;;;;;;11.87;10.33;;;;;;;;;;5038397;28;20574;-68
2022/11/21 03:21:33;;;;;;;12.80;10.57;;;;;;;;;;5040335;28;20183;-69
2022/11/21 03:24:02;;;;;;;11.53;10.13;;;;;;;;;;5038524;28;20191;-68
2022/11/21 03:26:27;;;;;;;12.00;10.10;;;;;;;;;;5043250;28;20180;-68
2022/11/21 03:28:53;;;;;;;12.40;10.57;;;;;;;;;;5039738;28;20450;-68
2022/11/21 03:31:18;;;;;;;13.93;10.30;;;;;;;;;;5041205;28;20582;-68
2022/11/21 03:33:43;;;;;;;12.97;10.20;;;;;;;;;;5037528;28;20754;-69
2022/11/21 03:36:08;;;;;;;11.30;9.67;;;;;;;;;;5040740;28;20257;-67
2022/11/21 03:38:34;;;;;;;11.20;9.97;;;;;;;;;;5038695;28;20669;-66
2022/11/21 03:41:28;;;;;;;11.93;10.50;;;;;;;;;;5040283;28;20195;-67
2022/11/21 03:43:50;;;;;;;14.63;9.60;;;;;;;;;;5039062;28;20196;-67
2022/11/21 03:46:15;;;;;;;13.87;11.97;;;;;;;;;;5041572;28;20442;-67
2022/11/21 03:48:41;;;;;;;13.00;11.20;;;;;;;;;;5043081;28;20203;-68
2022/11/21 03:51:06;;;;;;;13.23;10.87;;;;;;;;;;5041058;28;20232;-69
2022/11/21 03:53:34;;;;;;;14.10;9.53;;;;;;;;;;5034779;28;20186;-69
2022/11/21 03:55:59;;;;;;;14.10;11.20;;;;;;;;;;5034695;28;20652;-68
2022/11/21 03:58:25;;;;;;;12.00;10.03;;;;;;;;;;5034084;28;20453;-69
2022/11/21 04:00:50;;;;;;;11.37;9.87;;;;;;;;;;5054558;28;20211;-67
2022/11/21 04:03:16;;;;;;;12.17;10.60;;;;;;;;;;5035594;28;20656;-69
2022/11/21 04:05:43;;;;;;;11.03;9.80;;;;;;;;;;5033973;28;20629;-70
2022/11/21 04:08:08;;;;;;;11.67;10.20;;;;;;;;;;5053003;28;20214;-66
2022/11/21 04:10:34;;;;;;;12.60;10.37;;;;;;;;;;5040378;28;20851;-68
2022/11/21 04:12:59;;;;;;;14.23;10.80;;;;;;;;;;5040290;28;20215;-67
2022/11/21 04:15:24;;;;;;;14.00;10.63;;;;;;;;;;5050597;28;20210;-68
2022/11/21 04:17:50;;;;;;;11.93;9.77;;;;;;;;;;5040368;28;20203;-70
2022/11/21 04:20:15;;;;;;;12.73;10.37;;;;;;;;;;5059161;28;20183;-69
2022/11/21 04:22:41;;;;;;;11.83;10.40;;;;;;;;;;5038503;28;20192;-67
2022/11/21 04:25:06;;;;;;;10.90;9.20;;;;;;;;;;5040739;28;20180;-67
2022/11/21 04:27:32;;;;;;;11.03;9.83;;;;;;;;;;5038511;28;20503;-68
2022/11/21 04:29:57;;;;;;;12.37;9.80;;;;;;;;;;5041954;28;20988;-68
2022/11/21 04:32:22;;;;;;;12.73;10.53;;;;;;;;;;5044965;28;20238;-69
2022/11/21 04:34:48;;;;;;;12.83;10.13;;;;;;;;;;5037649;22;20315;-73
2022/11/21 04:37:13;;;;;;;13.20;10.70;;;;;;;;;;5017393;28;20181;-73
2022/11/21 04:39:40;;;;;;;14.30;11.27;;;;;;;;;;5019582;28;20177;-73
2022/11/21 04:42:06;;;;;;;13.33;10.87;;;;;;;;;;5022907;28;20649;-73
2022/11/21 04:44:31;;;;;;;11.00;9.87;;;;;;;;;;5007990;28;20453;-75
2022/11/21 04:46:58;;;;;;;13.00;10.90;;;;;;;;;;4997341;28;20186;-76
2022/11/21 04:49:24;;;;;;;13.87;10.50;;;;;;;;;;5003753;28;20260;-75
2022/11/21 04:51:49;;;;;;;15.10;9.80;;;;;;;;;;4999487;28;20555;-75
2022/11/21 04:54:14;;;;;;;13.03;10.87;;;;;;;;;;5002074;28;20312;-75
2022/11/21 04:56:40;;;;;;;16.23;11.20;;;;;;;;;;4981913;28;20205;-75
2022/11/21 04:59:05;;;;;;;13.10;11.07;;;;;;;;;;5001222;28;20191;-75
2022/11/21 05:01:30;;;;;;;13.67;11.67;;;;;;;;;;5000464;28;20285;-76
2022/11/21 05:03:56;;;;;;;13.77;11.53;;;;;;;;;;4998305;28;20294;-75
2022/11/21 05:06:21;;;;;;;13.70;11.40;;;;;;;;;;4995315;28;20182;-73
2022/11/21 05:08:46;;;;;;;14.60;11.33;;;;;;;;;;4992454;28;22945;-73
2022/11/21 05:13:55;;;;;;;13.03;11.30;;;;;;;;;;4996784;28;20275;-73
2022/11/21 05:16:20;;;;;;;14.67;12.00;;;;;;;;;;4998823;28;20444;-73
2022/11/21 05:18:46;;;;;;;14.80;11.67;;;;;;;;;;4997014;28;20192;-73
2022/11/21 05:21:11;;;;;;;12.73;11.10;;;;;;;;;;4983925;28;20193;-73
2022/11/21 05:23:36;;;;;;;14.60;11.00;;;;;;;;;;4991282;28;20263;-73
2022/11/21 05:26:01;;;;;;;13.77;11.90;;;;;;;;;;4993866;28;20177;-73
2022/11/21 05:28:27;;;;;;;13.93;11.50;;;;;;;;;;4996615;28;20642;-76
2022/11/21 05:30:52;;;;;;;15.20;11.67;;;;;;;;;;4995765;28;20322;-73
2022/11/21 05:33:17;;;;;;;14.33;12.50;;;;;;;;;;4989245;28;20219;-73
2022/11/21 05:35:43;;;;;;;13.03;11.57;;;;;;;;;;4997401;28;20177;-73
2022/11/21 05:38:08;;;;;;;14.50;12.17;;;;;;;;;;4998407;28;20186;-73
2022/11/21 05:40:33;;;;;;;14.90;11.90;;;;;;;;;;5003774;28;20544;-73
2022/11/21 05:45:43;;;;;;;12.40;10.93;;;;;;;;;;4994350;28;20184;-72
2022/11/21 05:48:08;;;;;;;14.80;12.30;;;;;;;;;;4983496;28;20474;-74
2022/11/21 05:50:34;;;;;;;13.53;11.63;;;;;;;;;;4994105;28;20201;-75
2022/11/21 05:53:01;;;;;;;16.97;11.37;;;;;;;;;;5000508;28;20179;-74
2022/11/21 05:55:26;;;;;;;13.60;11.57;;;;;;;;;;5002785;28;20432;-74
2022/11/21 05:57:51;;;;;;;14.80;12.37;;;;;;;;;;4992632;28;20428;-74
2022/11/21 06:00:17;;;;;;;13.87;11.70;;;;;;;;;;5002985;28;20208;-74
2022/11/21 06:05:26;;;;;;;13.77;12.20;;;;;;;;;;4997278;28;20180;-75
2022/11/21 06:07:51;;;;;;;14.20;11.43;;;;;;;;;;4997892;28;20884;-75
2022/11/21 06:10:17;;;;;;;14.07;11.90;;;;;;;;;;4997672;28;20268;-77
2022/11/21 06:12:42;;;;;;;15.40;11.57;;;;;;;;;;4984666;28;20596;-75
2022/11/21 06:15:08;;;;;;;14.10;11.50;;;;;;;;;;5002491;28;20200;-75
2022/11/21 06:17:33;;;;;;;16.93;12.70;;;;;;;;;;5000113;28;20188;-75
2022/11/21 06:19:58;;;;;;;18.37;13.43;;;;;;;;;;4998917;28;20216;-75
2022/11/21 06:22:24;;;;;;;16.40;12.03;;;;;;;;;;4997552;28;20181;-75
2022/11/21 06:24:51;;;;;;;18.40;13.40;;;;;;;;;;5000711;28;20206;-75
2022/11/21 06:27:19;;;;;;;16.93;13.20;;;;;;;;;;5002287;28;20394;-75
2022/11/21 06:29:44;;;;;;;16.40;12.40;;;;;;;;;;5000577;28;20514;-75
2022/11/21 06:32:09;;;;;;;16.80;12.57;;;;;;;;;;4996704;28;21010;-75
2022/11/21 06:34:35;;;;;;;15.27;11.87;;;;;;;;;;5001940;28;20347;-75
2022/11/21 06:37:03;;;;;;;14.83;11.23;;;;;;;;;;4983604;28;20196;-75
2022/11/21 06:39:28;;;;;;;16.73;12.50;;;;;;;;;;4999444;28;20208;-75
2022/11/21 06:41:53;;;;;;;14.93;11.83;;;;;;;;;;5003384;28;20464;-75
2022/11/21 06:44:23;;;;;;;15.50;12.63;;;;;;;;;;5004700;28;20188;-75
2022/11/21 06:46:49;;;;;;;16.63;13.73;;;;;;;;;;4987326;28;20541;-75
2022/11/21 06:49:14;;;;;;;15.37;13.07;;;;;;;;;;5002723;28;20428;-75
2022/11/21 06:51:41;;;;;;;19.47;13.70;;;;;;;;;;5001758;28;20641;-75
2022/11/21 06:54:09;;;;;;;14.63;12.50;;;;;;;;;;5003211;28;20201;-75
2022/11/21 06:56:34;;;;;;;17.27;13.03;;;;;;;;;;5000956;28;20984;-75
2022/11/21 06:59:00;;;;;;;14.70;12.43;;;;;;;;;;4997507;28;20574;-74
2022/11/21 07:01:25;;;;;;;15.00;12.50;;;;;;;;;;5003845;28;20181;-75
2022/11/21 07:03:51;;;;;;;18.13;13.57;;;;;;;;;;4998718;28;20621;-75
2022/11/21 07:06:21;;;;;;;17.23;12.87;;;;;;;;;;5003521;28;20216;-75
2022/11/21 07:08:47;;;;;;;17.67;13.57;;;;;;;;;;5001133;28;20436;-75
2022/11/21 07:11:13;;;;;;;16.73;13.80;;;;;;;;;;5000651;28;20991;-75
2022/11/21 07:13:38;;;;;;;17.50;13.90;;;;;;;;;;4998063;28;20649;-75
2022/11/21 07:16:08;;;;;;;17.47;14.23;;;;;;;;;;4982595;28;20432;-75
2022/11/21 07:18:36;;;;;;;18.33;13.70;;;;;;;;;;5001937;28;20172;-75
2022/11/21 07:21:02;;;;;;;22.20;14.67;;;;;;;;;;5001269;28;20454;-75
2022/11/21 07:23:28;;;;;;;24.00;15.17;;;;;;;;;;5000725;28;20456;-75
2022/11/21 07:25:54;;;;;;;21.27;16.53;;;;;;;;;;4996131;28;20441;-75
2022/11/21 07:28:19;;;;;;;19.50;15.23;;;;;;;;;;5003987;28;20177;-75
2022/11/21 07:30:44;;;;;;;21.10;16.87;;;;;;;;;;5003266;28;20594;-75
2022/11/21 07:33:12;;;;;;;21.53;15.40;;;;;;;;;;4983954;28;20196;-75
2022/11/21 07:35:41;;;;;;;20.13;15.47;;;;;;;;;;4997882;28;20181;-75
2022/11/21 07:38:06;;;;;;;22.70;14.40;;;;;;;;;;5000992;28;20435;-75
2022/11/21 07:40:34;;;;;;;18.07;14.47;;;;;;;;;;5000152;28;20446;-75
2022/11/21 07:43:02;;;;;;;20.37;15.50;;;;;;;;;;4998310;28;20178;-75
2022/11/21 07:45:30;;;;;;;17.57;15.17;;;;;;;;;;4998256;28;20487;-75
2022/11/21 07:47:59;;;;;;;17.63;14.23;;;;;;;;;;5008708;28;20408;-75
2022/11/21 07:50:24;;;;;;;20.10;14.73;;;;;;;;;;5000683;28;20513;-75
2022/11/21 07:52:55;;;;;;;18.90;14.77;;;;;;;;;;5006944;28;20789;-75
2022/11/21 08:06:11;;;;;;;17.60;14.57;;;;;;;;;;5094510;27;20419;-67
2022/11/21 08:08:36;;;;;;;18.93;14.93;;;;;;;;;;5077257;28;20523;-68
2022/11/21 08:11:05;;;;;;;20.80;15.30;;;;;;;;;;5077209;28;20177;-68
2022/11/21 08:13:31;;;;;;;20.60;15.80;;;;;;;;;;5078972;28;20633;-68
2022/11/21 08:15:56;;;;;;;18.90;15.17;;;;;;;;;;5077368;28;20424;-68
2022/11/21 08:18:25;;;;;;;22.57;17.43;;;;;;;;;;5073448;28;20249;-68
2022/11/21 08:20:50;;;;;;;20.27;16.00;;;;;;;;;;5077655;28;20179;-68
2022/11/21 08:23:15;;;;;;;24.67;15.83;;;;;;;;;;5076253;28;20417;-68
2022/11/21 08:25:41;;;;;;;21.30;16.10;;;;;;;;;;5079489;28;20535;-68
2022/11/21 08:28:07;;;;;;;25.10;17.73;;;;;;;;;;5071314;28;20225;-68
2022/11/21 08:30:33;;;;;;;23.40;16.20;;;;;;;;;;5077780;28;20179;-68
2022/11/21 08:32:59;;;;;;;24.70;17.27;;;;;;;;;;5078879;28;20951;-68
2022/11/21 08:35:27;;;;;;;23.43;16.60;;;;;;;;;;5076505;28;20186;-68
2022/11/21 08:37:59;;;;;;;21.30;17.00;;;;;;;;;;5077607;28;20202;-68
2022/11/21 08:40:25;;;;;;;21.87;15.50;;;;;;;;;;5073851;28;20405;-67
2022/11/21 08:43:01;;;;;;;20.60;16.30;;;;;;;;;;5074761;28;20409;-67
2022/11/21 08:45:26;;;;;;;22.00;16.97;;;;;;;;;;5076532;28;20466;-68
2022/11/21 08:47:52;;;;;;;22.03;16.30;;;;;;;;;;5067478;28;20449;-68
2022/11/21 08:50:17;;;;;;;19.93;15.50;;;;;;;;;;5074811;28;20182;-68
2022/11/21 08:52:43;;;;;;;22.67;16.83;;;;;;;;;;5076013;28;20408;-68
2022/11/21 08:55:08;;;;;;;20.60;16.20;;;;;;;;;;5075589;28;20206;-68
2022/11/21 08:57:37;;;;;;;20.90;15.80;;;;;;;;;;5072773;28;20563;-68
2022/11/21 09:00:03;;;;;;;21.50;15.77;;;;;;;;;;5078529;28;20265;-67
2022/11/21 09:02:28;;;;;;;24.00;17.10;;;;;;;;;;5075778;28;20561;-67
2022/11/21 09:04:53;;;;;;;21.63;16.40;;;;;;;;;;5075105;28;20630;-67
2022/11/21 09:07:18;;;;;;;21.73;16.57;;;;;;;;;;5062363;28;20183;-67
2022/11/21 09:09:44;;;;;;;21.93;15.17;;;;;;;;;;5063452;28;20207;-67
2022/11/21 09:12:09;;;;;;;19.63;15.57;;;;;;;;;;5063058;28;20574;-67
2022/11/21 09:20:02;;;;;;;19.67;14.80;;;;;;;;;;5063219;28;20401;-67
2022/11/21 09:22:27;;;;;;;21.50;16.00;;;;;;;;;;5065704;28;20418;-67
2022/11/21 09:24:55;;;;;;;20.47;16.00;;;;;;;;;;5060594;28;20594;-67
2022/11/21 09:27:21;;;;;;;19.67;14.93;;;;;;;;;;5077817;28;20266;-67
2022/11/21 09:29:46;;;;;;;22.37;15.43;;;;;;;;;;5060004;28;20544;-67
2022/11/21 09:32:14;;;;;;;21.53;15.70;;;;;;;;;;5064031;28;20714;-67
2022/11/21 09:34:39;;;;;;;21.60;15.97;;;;;;;;;;5063947;28;20176;-67
2022/11/21 09:37:04;;;;;;;19.93;15.10;;;;;;;;;;5062293;28;20501;-67
2022/11/21 09:39:30;;;;;;;19.23;14.10;;;;;;;;;;5064286;28;20196;-67
2022/11/21 09:42:14;;;;;;;18.27;15.30;;;;;;;;;;5061058;28;20180;-67
2022/11/21 09:44:53;;;;;;;18.80;16.30;;;;;;;;;;5063067;28;20198;-67
2022/11/21 09:47:24;;;;;;;20.30;14.47;;;;;;;;;;5058098;28;20429;-67
2022/11/21 09:49:53;;;;;;;20.47;14.50;;;;;;;;;;5062257;28;20448;-67
2022/11/21 09:52:20;;;;;;;21.03;14.30;;;;;;;;;;5059406;28;20488;-67
2022/11/21 09:54:50;;;;;;;18.10;14.03;;;;;;;;;;5062908;28;21080;-67
2022/11/21 09:57:17;;;;;;;17.73;14.90;;;;;;;;;;5061943;28;20482;-67
2022/11/21 09:59:43;;;;;;;18.97;14.10;;;;;;;;;;5060391;28;20884;-67
2022/11/21 10:02:15;;;;;;;17.80;14.60;;;;;;;;;;5057800;28;20520;-67
2022/11/21 10:04:40;;;;;;;16.97;14.00;;;;;;;;;;5062388;28;20556;-67
2022/11/21 10:07:10;;;;;;;16.23;13.27;;;;;;;;;;5062922;28;20489;-67
2022/11/21 10:09:49;;;;;;;16.47;13.27;;;;;;;;;;5062357;28;20589;-67
2022/11/21 10:12:41;;;;;;;21.10;13.30;;;;;;;;;;5059736;28;20398;-67
2022/11/21 10:15:13;;;;;;;13.23;10.87;;;;;;;;;;5052772;28;20953;-67
2022/11/21 10:17:59;;;;;;;16.87;13.40;;;;;;;;;;5051492;28;20508;-67
2022/11/21 10:20:33;;;;;;;16.33;12.27;;;;;;;;;;5058132;28;20430;-67
2022/11/21 10:23:07;;;;;;;15.50;12.10;;;;;;;;;;5059148;28;20424;-67
2022/11/21 10:25:36;;;;;;;16.00;12.93;;;;;;;;;;5060895;28;20457;-67
2022/11/21 10:28:07;;;;;;;14.93;11.73;;;;;;;;;;5064453;28;20430;-67
2022/11/21 10:30:32;;;;;;;16.10;12.47;;;;;;;;;;5061188;28;20397;-67
2022/11/21 10:33:01;;;;;;;14.00;11.13;;;;;;;;;;5062027;28;20418;-68
2022/11/21 10:35:38;;;;;;;14.93;11.90;;;;;;;;;;5062958;28;20187;-68
2022/11/21 10:38:14;;;;;;;17.40;11.57;;;;;;;;;;5056905;28;20531;-68
2022/11/21 10:40:43;;;;;;;15.20;11.40;;;;;;;;;;5072840;22;20495;-69
2022/11/21 10:46:11;;;;;;;15.80;12.70;;;;;;;;;;5037277;28;20853;-69
2022/11/21 10:48:36;;;;;;;16.07;11.43;;;;;;;;;;5039250;28;20419;-70
2022/11/21 10:51:20;;;;;;;15.30;11.90;;;;;;;;;;5040962;28;20192;-71
2022/11/21 10:56:32;;;;;;;13.10;10.80;;;;;;;;;;5039417;28;20509;-71
2022/11/21 10:59:00;;;;;;;15.00;11.17;;;;;;;;;;5038019;28;20770;-70
2022/11/21 11:01:27;;;;;;;15.17;11.63;;;;;;;;;;5031178;28;20601;-70
2022/11/21 11:04:11;;;;;;;14.13;10.83;;;;;;;;;;5034503;28;20458;-70
2022/11/21 11:06:41;;;;;;;14.00;11.57;;;;;;;;;;5022569;28;21035;-70
2022/11/21 11:09:20;;;;;;;13.73;10.77;;;;;;;;;;5031435;28;22041;-71
2022/11/21 11:11:45;;;;;;;12.50;9.97;;;;;;;;;;5033074;28;20446;-70
2022/11/21 11:14:12;;;;;;;14.70;11.23;;;;;;;;;;5018428;28;20453;-70
2022/11/21 11:16:42;;;;;;;16.60;11.37;;;;;;;;;;5034008;28;20478;-70
2022/11/21 11:19:13;;;;;;;12.70;10.30;;;;;;;;;;5037177;28;20441;-70
2022/11/21 11:21:39;;;;;;;13.63;10.50;;;;;;;;;;5029961;28;20454;-71
2022/11/21 11:24:08;;;;;;;14.90;10.33;;;;;;;;;;5032482;28;20515;-70
2022/11/21 11:26:33;;;;;;;14.70;10.60;;;;;;;;;;5034066;28;20528;-70
2022/11/21 11:29:12;;;;;;;13.10;10.47;;;;;;;;;;5035278;28;20436;-70
2022/11/21 11:31:40;;;;;;;13.23;10.87;;;;;;;;;;5029461;28;20665;-70
2022/11/21 11:34:09;;;;;;;13.17;11.70;;;;;;;;;;5024304;28;20962;-69
2022/11/21 11:36:34;;;;;;;16.33;11.10;;;;;;;;;;5032900;28;20435;-69
2022/11/21 11:39:01;;;;;;;14.50;10.90;;;;;;;;;;5018428;28;20437;-70
2022/11/21 11:47:40;;;;;;;15.13;11.50;;;;;;;;;;5035740;28;20424;-70
2022/11/21 11:50:12;;;;;;;14.10;11.10;;;;;;;;;;5023951;28;20458;-69
2022/11/21 11:52:57;;;;;;;15.10;11.60;;;;;;;;;;5034902;28;20461;-69
2022/11/21 11:55:25;;;;;;;14.50;11.30;;;;;;;;;;5035562;28;20477;-69
2022/11/21 11:57:52;;;;;;;13.10;10.60;;;;;;;;;;5033541;28;20472;-69
2022/11/21 12:00:18;;;;;;;15.40;11.60;;;;;;;;;;5031975;28;20441;-69
2022/11/21 12:02:50;;;;;;;12.10;10.00;;;;;;;;;;5035664;28;20445;-69
2022/11/21 12:05:19;;;;;;;14.63;11.87;;;;;;;;;;5033314;28;20653;-70
2022/11/21 12:07:49;;;;;;;12.53;10.53;;;;;;;;;;5034853;28;20438;-69
2022/11/21 12:10:30;;;;;;;13.80;10.63;;;;;;;;;;5032917;28;20445;-70
2022/11/21 12:13:02;;;;;;;11.63;10.27;;;;;;;;;;5024111;28;20425;-70
2022/11/21 12:15:49;;;;;;;12.00;10.70;;;;;;;;;;5022035;28;20430;-70
2022/11/21 12:18:21;;;;;;;14.20;11.20;;;;;;;;;;5018408;28;20446;-70
2022/11/21 12:21:04;;;;;;;14.00;11.30;;;;;;;;;;5036011;28;20453;-70
2022/11/21 12:23:43;;;;;;;13.87;11.07;;;;;;;;;;5011897;28;20474;-70
2022/11/21 12:26:18;;;;;;;14.00;10.97;;;;;;;;;;5016761;28;20446;-71
2022/11/21 12:28:43;;;;;;;12.60;9.37;;;;;;;;;;5033982;28;20442;-70
2022/11/21 12:31:22;;;;;;;13.00;9.90;;;;;;;;;;5037094;28;20457;-70
2022/11/21 12:34:01;;;;;;;12.40;10.20;;;;;;;;;;5028487;28;20180;-70
2022/11/21 12:36:30;;;;;;;12.57;10.30;;;;;;;;;;5037939;28;20879;-70
2022/11/21 12:38:58;;;;;;;12.90;10.50;;;;;;;;;;5038269;28;20422;-70
2022/11/21 12:44:54;;;;;;;13.07;10.00;;;;;;;;;;5039599;28;20824;-70
2022/11/21 12:47:27;;;;;;;12.83;10.83;;;;;;;;;;5041057;28;20520;-69
2022/11/21 12:55:46;;;;;;;14.20;10.40;;;;;;;;;;5042311;28;20424;-70
2022/11/21 12:58:17;;;;;;;13.27;9.93;;;;;;;;;;5024091;28;20431;-70
2022/11/21 13:00:51;;;;;;;16.70;10.50;;;;;;;;;;5043003;28;20250;-71
2022/11/21 13:03:19;;;;;;;12.87;10.20;;;;;;;;;;5041501;28;20532;-70
2022/11/21 13:05:47;;;;;;;14.93;10.60;;;;;;;;;;5039451;28;20439;-70
2022/11/21 13:08:15;;;;;;;10.60;9.47;;;;;;;;;;5043665;28;20449;-70
2022/11/21 13:10:45;;;;;;;13.23;9.97;;;;;;;;;;5039255;28;20794;-69
2022/11/21 13:13:18;;;;;;;14.83;10.20;;;;;;;;;;5025217;28;20521;-70
2022/11/21 13:16:06;;;;;;;12.73;10.50;;;;;;;;;;5041502;28;20431;-71
2022/11/21 13:18:49;;;;;;;12.63;10.80;;;;;;;;;;5036729;28;20435;-70
2022/11/21 13:21:33;;;;;;;12.50;10.70;;;;;;;;;;5039113;28;20514;-70
2022/11/21 13:23:59;;;;;;;11.50;10.17;;;;;;;;;;5040466;28;20466;-69
2022/11/21 13:26:24;;;;;;;12.90;10.00;;;;;;;;;;5027518;28;20423;-69
2022/11/21 13:28:52;;;;;;;11.80;10.20;;;;;;;;;;5039032;28;20226;-70
2022/11/21 13:31:33;;;;;;;13.67;10.80;;;;;;;;;;5021414;28;20321;-69
2022/11/21 13:33:59;;;;;;;12.87;10.53;;;;;;;;;;5037686;28;20438;-69
2022/11/21 13:36:27;;;;;;;14.20;10.40;;;;;;;;;;5033189;28;20443;-69
2022/11/21 13:38:52;;;;;;;11.00;9.73;;;;;;;;;;5035990;28;20431;-71
2022/11/21 13:44:31;;;;;;;13.33;10.53;;;;;;;;;;5019793;28;20287;-69
2022/11/21 13:46:56;;;;;;;12.63;10.53;;;;;;;;;;5016458;28;20435;-69
2022/11/21 13:49:24;;;;;;;14.40;10.60;;;;;;;;;;5040802;28;20417;-70
2022/11/21 13:51:52;;;;;;;12.73;10.90;;;;;;;;;;5026889;28;20209;-70
2022/11/21 13:54:27;;;;;;;14.73;10.67;;;;;;;;;;5023496;28;20503;-70
2022/11/21 13:57:31;;;;;;;12.70;10.63;;;;;;;;;;5040524;28;20479;-69
2022/11/21 14:00:02;;;;;;;13.53;10.93;;;;;;;;;;4955529;28;20857;-70
2022/11/21 14:02:36;;;;;;;14.03;11.23;;;;;;;;;;4972197;28;20436;-69
2022/11/21 14:05:20;;;;;;;15.57;12.50;;;;;;;;;;5009867;28;20531;-70
2022/11/21 14:07:45;;;;;;;14.47;11.90;;;;;;;;;;5040303;28;20510;-69
2022/11/21 14:10:24;;;;;;;14.80;10.50;;;;;;;;;;5025145;28;20537;-70
2022/11/21 14:12:50;;;;;;;14.17;11.17;;;;;;;;;;5026250;28;20273;-69
2022/11/21 14:15:15;;;;;;;13.07;10.13;;;;;;;;;;5031962;28;20939;-69
2022/11/21 14:17:46;;;;;;;12.33;9.93;;;;;;;;;;5036810;28;20479;-69
2022/11/21 14:20:25;;;;;;;13.17;10.60;;;;;;;;;;5026954;28;20510;-69
2022/11/21 14:23:02;;;;;;;12.23;9.90;;;;;;;;;;5037243;28;20435;-70
2022/11/21 14:25:30;;;;;;;13.30;9.50;;;;;;;;;;5038186;28;20462;-69
2022/11/21 14:27:56;;;;;;;15.00;10.97;;;;;;;;;;5040912;28;20411;-69
2022/11/21 14:30:40;;;;;;;11.07;9.17;;;;;;;;;;5037521;28;20797;-69
2022/11/21 14:33:22;;;;;;;10.53;8.73;;;;;;;;;;5035345;28;20192;-70
2022/11/21 14:35:50;;;;;;;11.07;9.03;;;;;;;;;;5037121;28;20435;-69
2022/11/21 14:38:15;;;;;;;11.50;8.30;;;;;;;;;;5022278;28;21019;-70
2022/11/21 14:40:41;;;;;;;8.97;7.33;;;;;;;;;;5039284;28;20541;-70
2022/11/21 14:43:45;;;;;;;9.27;7.63;;;;;;;;;;5040957;28;20555;-69
2022/11/21 14:46:19;;;;;;;9.60;7.43;;;;;;;;;;4944971;28;20194;-69
2022/11/21 14:48:44;;;;;;;9.33;7.77;;;;;;;;;;4930018;28;20427;-69
2022/11/21 14:51:13;;;;;;;10.50;8.17;;;;;;;;;;4974065;28;20902;-71
2022/11/21 14:53:39;;;;;;;12.80;7.73;;;;;;;;;;5040504;28;20259;-69
2022/11/21 14:56:04;;;;;;;8.10;6.90;;;;;;;;;;5037172;28;20514;-70
2022/11/21 14:58:30;;;;;;;8.70;7.20;;;;;;;;;;5034924;28;20832;-70
2022/11/21 15:01:02;;;;;;;8.77;7.70;;;;;;;;;;5023731;28;20562;-69
2022/11/21 15:03:28;;;;;;;9.37;7.37;;;;;;;;;;5033500;28;20266;-70
2022/11/21 15:06:03;;;;;;;9.13;7.97;;;;;;;;;;5021416;28;20529;-69
2022/11/21 15:08:29;;;;;;;10.50;8.13;;;;;;;;;;5024060;28;20532;-69
2022/11/21 15:10:55;;;;;;;10.17;7.63;;;;;;;;;;5039099;28;20457;-70
2022/11/21 15:13:24;;;;;;;9.30;8.30;;;;;;;;;;5040605;28;20183;-69
2022/11/21 15:15:51;;;;;;;10.07;7.90;;;;;;;;;;5039734;28;20481;-69